createdAt,value
2019-05-17T00:03:17.003Z,13.34
2019-05-17T00:06:41.461Z,13.32
2019-05-17T00:10:06.807Z,13.03
2019-05-17T00:13:30.516Z,13.28
2019-05-17T00:16:53.791Z,13.11
2019-05-17T00:20:17.533Z,13.22
2019-05-17T00:23:41.523Z,13.06
2019-05-17T00:27:06.745Z,13.28
2019-05-17T00:30:30.066Z,13.31
2019-05-17T00:33:53.423Z,13.30
2019-05-17T00:37:17.765Z,13.27
2019-05-17T00:40:41.206Z,13.34
2019-05-17T00:44:06.332Z,13.18
2019-05-17T00:47:29.766Z,13.26
2019-05-17T00:50:54.225Z,13.15
2019-05-17T00:54:17.733Z,13.17
2019-05-17T00:57:40.935Z,12.97
2019-05-17T01:01:04.145Z,13.01
2019-05-17T01:04:27.681Z,13.03
2019-05-17T01:07:50.935Z,13.14
2019-05-17T01:11:16.507Z,13.06
2019-05-17T01:14:39.926Z,13.15
2019-05-17T01:18:03.109Z,13.02
2019-05-17T01:21:26.369Z,13.12
2019-05-17T01:24:50.014Z,13.13
2019-05-17T01:28:13.206Z,13.28
2019-05-17T01:31:37.327Z,13.07
2019-05-17T01:35:00.886Z,13.15
2019-05-17T01:38:26.939Z,13.15
2019-05-17T01:41:50.259Z,13.20
2019-05-17T01:45:16.472Z,13.12
2019-05-17T01:48:39.467Z,13.17
2019-05-17T01:52:03.773Z,13.42
2019-05-17T01:55:27.028Z,13.27
2019-05-17T01:58:50.882Z,13.24
2019-05-17T02:02:17.318Z,13.33
2019-05-17T02:05:40.671Z,13.43
2019-05-17T02:09:06.351Z,13.20
2019-05-17T02:12:30.113Z,13.18
2019-05-17T02:15:53.204Z,13.30
2019-05-17T02:19:17.412Z,13.26
2019-05-17T02:22:40.835Z,13.16
2019-05-17T02:26:06.475Z,13.23
2019-05-17T02:29:29.461Z,13.32
2019-05-17T02:32:54.067Z,13.21
2019-05-17T02:36:17.444Z,13.27
2019-05-17T02:39:56.586Z,13.15
2019-05-17T02:43:06.036Z,13.27
2019-05-17T02:46:29.174Z,13.20
2019-05-17T02:49:52.613Z,13.07
2019-05-17T02:53:15.801Z,12.99
2019-05-17T02:56:38.968Z,13.03
2019-05-17T03:00:04.310Z,13.00
2019-05-17T03:03:28.243Z,12.95
2019-05-17T03:06:53.202Z,12.94
2019-05-17T03:10:24.101Z,12.94
2019-05-17T03:13:43.431Z,13.03
2019-05-17T03:17:06.915Z,12.96
2019-05-17T03:20:32.799Z,13.01
2019-05-17T03:23:55.554Z,12.95
2019-05-17T03:27:19.043Z,12.99
2019-05-17T03:30:46.597Z,12.75
2019-05-17T03:34:09.062Z,12.94
2019-05-17T03:37:37.911Z,12.90
2019-05-17T03:41:13.369Z,13.01
2019-05-17T03:44:26.008Z,12.99
2019-05-17T03:47:49.117Z,12.95
2019-05-17T03:51:13.125Z,12.89
2019-05-17T03:54:36.705Z,12.73
2019-05-17T03:58:03.091Z,12.99
2019-05-17T04:01:25.180Z,12.88
2019-05-17T04:04:48.508Z,12.97
2019-05-17T04:08:13.882Z,13.01
2019-05-17T04:11:37.012Z,12.94
2019-05-17T04:15:03.245Z,12.99
2019-05-17T04:18:25.787Z,12.97
2019-05-17T04:21:49.049Z,13.09
2019-05-17T04:25:13.701Z,12.96
2019-05-17T04:28:37.347Z,13.18
2019-05-17T04:32:03.554Z,13.02
2019-05-17T04:35:26.615Z,13.08
2019-05-17T04:38:52.604Z,13.10
2019-05-17T04:42:22.407Z,12.97
2019-05-17T04:45:44.179Z,13.10
2019-05-17T04:49:07.301Z,13.12
2019-05-17T04:52:33.484Z,13.22
2019-05-17T04:55:55.629Z,13.20
2019-05-17T04:59:18.768Z,13.36
2019-05-17T05:02:43.621Z,13.31
2019-05-17T05:06:07.123Z,13.49
2019-05-17T05:09:32.257Z,13.73
2019-05-17T05:12:56.076Z,13.63
2019-05-17T05:16:22.448Z,13.62
2019-05-17T05:19:44.642Z,13.75
2019-05-17T05:23:08.998Z,13.36
2019-05-17T05:26:32.278Z,13.68
2019-05-17T05:29:55.527Z,13.78
2019-05-17T05:33:18.662Z,13.81
2019-05-17T05:36:42.037Z,13.93
2019-05-17T05:40:05.763Z,13.98
2019-05-17T05:43:32.433Z,13.77
2019-05-17T05:46:55.243Z,13.39
2019-05-17T05:50:18.567Z,13.81
2019-05-17T05:53:42.118Z,14.08
2019-05-17T05:57:05.845Z,14.20
2019-05-17T06:00:29.157Z,14.23
2019-05-17T06:03:52.436Z,14.08
2019-05-17T06:07:15.683Z,14.18
2019-05-17T06:10:39.644Z,14.21
2019-05-17T06:14:03.940Z,14.37
2019-05-17T06:17:27.155Z,14.22
2019-05-17T06:20:52.358Z,14.71
2019-05-17T06:24:15.936Z,15.08
2019-05-17T06:27:41.368Z,14.48
2019-05-17T06:31:04.255Z,14.36
2019-05-17T06:34:27.343Z,14.93
2019-05-17T06:37:50.749Z,15.11
2019-05-17T06:41:13.883Z,15.28
2019-05-17T06:44:37.545Z,14.74
2019-05-17T06:48:02.496Z,14.99
2019-05-17T06:51:25.849Z,15.11
2019-05-17T06:54:49.434Z,15.34
2019-05-17T06:58:12.604Z,15.43
2019-05-17T07:01:35.742Z,15.24
2019-05-17T07:05:02.381Z,15.17
2019-05-17T07:08:26.725Z,15.26
2019-05-17T07:11:51.321Z,15.75
2019-05-17T07:15:14.934Z,15.49
2019-05-17T07:18:39.958Z,15.68
2019-05-17T07:22:03.308Z,15.46
2019-05-17T07:25:30.287Z,15.82
2019-05-17T07:28:53.311Z,15.48
2019-05-17T07:32:19.293Z,15.63
2019-05-17T07:35:42.143Z,15.43
2019-05-17T07:39:05.373Z,15.44
2019-05-17T07:42:29.853Z,15.23
2019-05-17T07:45:53.174Z,15.92
2019-05-17T07:49:16.617Z,15.47
2019-05-17T07:52:40.068Z,15.72
2019-05-17T07:56:03.745Z,16.02
2019-05-17T07:59:29.460Z,15.73
2019-05-17T08:02:52.586Z,15.73
2019-05-17T08:06:15.735Z,15.29
2019-05-17T08:09:40.428Z,15.51
2019-05-17T08:13:03.913Z,14.88
2019-05-17T08:16:27.421Z,15.75
2019-05-17T08:19:50.559Z,15.55
2019-05-17T08:23:14.032Z,15.87
2019-05-17T08:26:37.384Z,16.10
2019-05-17T08:30:00.625Z,16.31
2019-05-17T08:33:23.865Z,15.95
2019-05-17T08:36:47.188Z,16.40
2019-05-17T08:40:11.050Z,16.87
2019-05-17T08:43:42.574Z,16.68
2019-05-17T08:46:59.590Z,16.70
2019-05-17T08:50:23.893Z,16.44
2019-05-17T08:53:49.171Z,16.09
2019-05-17T08:57:12.205Z,15.44
2019-05-17T09:00:35.405Z,15.42
2019-05-17T09:03:59.858Z,15.80
2019-05-17T09:07:23.367Z,15.81
2019-05-17T09:10:46.489Z,15.90
2019-05-17T09:14:10.449Z,16.25
2019-05-17T09:17:33.941Z,16.42
2019-05-17T09:20:57.438Z,16.24
2019-05-17T09:24:20.811Z,16.04
2019-05-17T09:27:44.149Z,16.14
2019-05-17T09:31:07.257Z,16.27
2019-05-17T09:34:30.480Z,16.56
2019-05-17T09:37:53.699Z,16.09
2019-05-17T09:41:17.135Z,15.91
2019-05-17T09:44:40.535Z,16.02
2019-05-17T09:48:04.317Z,15.86
2019-05-17T09:51:27.559Z,15.65
2019-05-17T09:54:50.660Z,16.08
2019-05-17T09:58:13.836Z,15.98
2019-05-17T10:01:39.301Z,16.03
2019-05-17T10:05:02.078Z,16.20
2019-05-17T10:08:25.600Z,16.65
2019-05-17T10:11:49.318Z,16.88
2019-05-17T10:15:13.536Z,16.22
2019-05-17T10:18:36.943Z,16.64
2019-05-17T10:22:00.268Z,16.75
2019-05-17T10:25:24.521Z,16.48
2019-05-17T10:28:47.796Z,15.91
2019-05-17T10:32:11.191Z,16.67
2019-05-17T10:35:34.544Z,16.39
2019-05-17T10:38:59.239Z,16.54
2019-05-17T10:42:22.784Z,16.71
2019-05-17T10:45:46.052Z,16.93
2019-05-17T10:49:10.902Z,16.54
2019-05-17T10:52:34.357Z,17.07
2019-05-17T10:56:00.415Z,16.61
2019-05-17T10:59:23.319Z,16.96
2019-05-17T11:02:46.504Z,16.73
2019-05-17T11:06:10.967Z,16.29
2019-05-17T11:09:34.549Z,16.61
2019-05-17T11:12:57.835Z,16.50
2019-05-17T11:16:24.316Z,16.64
2019-05-17T11:19:47.539Z,16.38
2019-05-17T11:23:10.896Z,16.48
2019-05-17T11:26:34.030Z,16.35
2019-05-17T11:29:57.440Z,15.85
2019-05-17T11:33:20.718Z,15.81
2019-05-17T11:36:43.848Z,15.63
2019-05-17T11:40:08.409Z,15.46
2019-05-17T11:43:32.176Z,15.50
2019-05-17T11:46:55.277Z,15.46
2019-05-17T11:50:18.616Z,15.55
2019-05-17T11:53:41.727Z,15.43
2019-05-17T11:57:05.011Z,15.84
2019-05-17T12:00:29.683Z,16.12
2019-05-17T12:03:52.809Z,16.01
2019-05-17T12:07:16.165Z,16.32
2019-05-17T12:10:39.417Z,17.21
2019-05-17T12:14:03.093Z,17.46
2019-05-17T12:17:26.203Z,16.95
2019-05-17T12:20:49.324Z,17.04
2019-05-17T12:24:13.000Z,17.25
2019-05-17T12:27:36.832Z,16.93
2019-05-17T12:31:00.142Z,16.51
2019-05-17T12:34:23.541Z,16.30
2019-05-17T12:37:46.830Z,16.36
2019-05-17T12:41:09.954Z,16.23
2019-05-17T12:44:36.923Z,16.77
2019-05-17T12:47:58.984Z,16.14
2019-05-17T12:51:22.051Z,16.56
2019-05-17T12:54:45.347Z,16.41
2019-05-17T12:58:09.717Z,17.00
2019-05-17T13:01:33.358Z,16.97
2019-05-17T13:04:56.715Z,16.58
2019-05-17T13:08:20.014Z,16.67
2019-05-17T13:11:43.270Z,16.41
2019-05-17T13:15:07.818Z,16.18
2019-05-17T13:18:31.025Z,15.49
2019-05-17T13:21:54.213Z,15.54
2019-05-17T13:25:17.787Z,15.49
2019-05-17T13:28:41.093Z,15.40
2019-05-17T13:32:04.178Z,15.49
2019-05-17T13:35:27.394Z,15.27
2019-05-17T13:38:50.653Z,14.82
2019-05-17T13:42:13.973Z,15.09
2019-05-17T13:45:37.118Z,14.70
2019-05-17T13:49:00.540Z,15.36
2019-05-17T13:52:23.749Z,15.37
2019-05-17T13:55:46.807Z,15.74
2019-05-17T13:59:10.230Z,15.73
2019-05-17T14:02:33.604Z,15.45
2019-05-17T14:05:56.923Z,15.88
2019-05-17T14:09:20.310Z,15.72
2019-05-17T14:12:43.504Z,15.77
2019-05-17T14:16:06.620Z,16.06
2019-05-17T14:19:29.833Z,16.43
2019-05-17T14:22:53.183Z,16.54
2019-05-17T14:26:16.263Z,16.60
2019-05-17T14:29:39.601Z,16.62
2019-05-17T14:33:02.702Z,16.33
2019-05-17T14:36:25.842Z,16.15
2019-05-17T14:39:49.139Z,16.05
2019-05-17T14:43:13.452Z,16.31
2019-05-17T14:46:36.581Z,16.49
2019-05-17T14:49:59.750Z,16.62
2019-05-17T14:53:23.084Z,16.73
2019-05-17T14:56:46.292Z,16.69
2019-05-17T15:00:09.655Z,16.72
2019-05-17T15:03:32.988Z,16.75
2019-05-17T15:06:56.271Z,16.99
2019-05-17T15:10:19.733Z,17.02
2019-05-17T15:13:42.944Z,17.25
2019-05-17T15:17:06.224Z,16.96
2019-05-17T15:20:29.384Z,17.07
2019-05-17T15:23:52.575Z,16.82
2019-05-17T15:27:15.841Z,16.63
2019-05-17T15:30:39.125Z,16.55
2019-05-17T15:34:04.250Z,16.32
2019-05-17T15:37:27.559Z,16.41
2019-05-17T15:40:50.795Z,16.31
2019-05-17T15:44:14.015Z,16.31
2019-05-17T15:47:37.257Z,16.03
2019-05-17T15:51:01.781Z,16.28
2019-05-17T15:54:25.099Z,16.42
2019-05-17T15:57:48.204Z,16.61
2019-05-17T16:01:11.758Z,16.65
2019-05-17T16:04:35.183Z,16.60
2019-05-17T16:07:58.316Z,16.63
2019-05-17T16:11:21.811Z,16.64
2019-05-17T16:14:45.144Z,16.46
2019-05-17T16:18:08.304Z,16.37
2019-05-17T16:21:31.368Z,16.37
2019-05-17T16:24:54.586Z,16.54
2019-05-17T16:28:17.971Z,16.49
2019-05-17T16:31:41.114Z,16.61
2019-05-17T16:35:05.456Z,16.64
2019-05-17T16:38:28.705Z,16.75
2019-05-17T16:41:51.907Z,16.69
2019-05-17T16:45:19.320Z,16.71
2019-05-17T16:48:42.746Z,16.81
2019-05-17T16:52:06.299Z,16.71
2019-05-17T16:55:29.407Z,16.97
2019-05-17T16:58:52.728Z,16.87
2019-05-17T17:02:16.099Z,16.99
2019-05-17T17:05:39.300Z,17.05
2019-05-17T17:09:04.165Z,17.17
2019-05-17T17:12:28.478Z,17.12
2019-05-17T17:15:52.336Z,17.34
2019-05-17T17:19:15.736Z,17.38
2019-05-17T17:22:39.185Z,17.35
2019-05-17T17:26:02.861Z,17.35
2019-05-17T17:29:26.451Z,17.38
2019-05-17T17:32:49.715Z,17.33
2019-05-17T17:36:12.887Z,17.34
2019-05-17T17:39:36.154Z,17.42
2019-05-17T17:42:59.990Z,17.33
2019-05-17T17:46:23.226Z,17.06
2019-05-17T17:49:49.873Z,17.03
2019-05-17T17:53:13.187Z,16.92
2019-05-17T17:56:37.454Z,16.90
2019-05-17T18:00:01.975Z,16.81
2019-05-17T18:03:27.110Z,16.88
2019-05-17T18:06:51.301Z,16.77
2019-05-17T18:10:30.128Z,16.81
2019-05-17T18:13:54.039Z,16.80
2019-05-17T18:17:18.010Z,16.71
2019-05-17T18:20:41.253Z,16.76
2019-05-17T18:24:05.474Z,16.69
2019-05-17T18:27:28.624Z,16.64
2019-05-17T18:30:52.967Z,16.64
2019-05-17T18:34:21.559Z,16.55
2019-05-17T18:37:44.863Z,16.59
2019-05-17T18:41:08.697Z,16.54
2019-05-17T18:44:32.299Z,16.51
2019-05-17T18:47:58.404Z,16.41
2019-05-17T18:51:23.611Z,16.45
2019-05-17T18:54:46.944Z,16.44
2019-05-17T18:58:11.261Z,16.43
2019-05-17T19:01:34.756Z,16.34
2019-05-17T19:04:59.105Z,16.29
2019-05-17T19:08:22.586Z,16.29
2019-05-17T19:11:45.859Z,16.28
2019-05-17T19:15:10.771Z,16.21
2019-05-17T19:18:35.646Z,16.18
2019-05-17T19:21:59.385Z,16.14
2019-05-17T19:25:24.198Z,16.09
2019-05-17T19:28:47.684Z,16.12
2019-05-17T19:32:11.170Z,16.05
2019-05-17T19:35:37.833Z,16.05
2019-05-17T19:39:01.439Z,16.08
2019-05-17T19:42:25.976Z,16.01
2019-05-17T19:45:49.579Z,16.08
2019-05-17T19:49:14.158Z,15.99
2019-05-17T19:52:37.801Z,15.89
2019-05-17T19:56:01.199Z,15.98
2019-05-17T19:59:24.845Z,15.91
2019-05-17T20:02:48.468Z,15.82
2019-05-17T20:06:12.659Z,15.75
2019-05-17T20:09:36.633Z,15.85
2019-05-17T20:13:01.092Z,15.77
2019-05-17T20:16:24.674Z,15.78
2019-05-17T20:19:48.495Z,15.76
2019-05-17T20:23:12.645Z,15.75
2019-05-17T20:26:36.072Z,15.66
2019-05-17T20:29:59.753Z,15.65
2019-05-17T20:33:23.297Z,15.52
2019-05-17T20:36:47.162Z,15.57
2019-05-17T20:40:11.071Z,15.58
2019-05-17T20:43:34.374Z,15.50
2019-05-17T20:46:57.858Z,15.48
2019-05-17T20:50:21.454Z,15.52
2019-05-17T20:53:45.011Z,15.58
2019-05-17T20:57:08.627Z,15.63
2019-05-17T21:00:31.991Z,15.57
2019-05-17T21:03:55.469Z,15.68
2019-05-17T21:07:26.960Z,15.57
2019-05-17T21:10:51.059Z,15.53
2019-05-17T21:14:14.910Z,15.50
2019-05-17T21:25:26.093Z,15.42
2019-05-17T21:28:49.289Z,15.39
2019-05-17T21:32:13.870Z,15.32
2019-05-17T21:35:37.063Z,15.36
2019-05-17T21:39:00.449Z,15.26
2019-05-17T21:42:23.710Z,15.25
2019-05-17T21:45:46.991Z,15.19
2019-05-17T21:49:10.347Z,15.14
2019-05-17T21:52:33.576Z,15.15
2019-05-17T21:55:57.219Z,15.20
2019-05-17T21:59:20.841Z,15.16
2019-05-17T22:02:44.069Z,15.15
2019-05-17T22:06:20.142Z,15.09
2019-05-17T22:09:44.546Z,15.03
2019-05-17T22:13:09.065Z,14.99
2019-05-17T22:16:32.601Z,14.97
2019-05-17T22:19:57.053Z,14.82
2019-05-17T22:23:20.479Z,14.89
2019-05-17T22:26:43.609Z,14.77
2019-05-17T22:30:07.527Z,14.77
2019-05-17T22:33:31.578Z,14.74
2019-05-17T22:36:54.882Z,14.63
2019-05-17T22:40:18.591Z,14.54
2019-05-17T22:43:41.731Z,14.47
2019-05-17T22:47:05.233Z,14.42
2019-05-17T22:50:28.439Z,14.37
2019-05-17T22:53:51.835Z,14.39
2019-05-17T22:57:15.604Z,14.31
2019-05-17T23:00:39.244Z,14.20
2019-05-17T23:04:02.468Z,13.99
2019-05-17T23:07:25.606Z,13.91
2019-05-17T23:10:48.833Z,13.90
2019-05-17T23:14:12.088Z,13.81
2019-05-17T23:17:35.245Z,13.68
2019-05-17T23:20:58.375Z,13.53
2019-05-17T23:24:21.616Z,13.47
2019-05-17T23:27:45.057Z,13.28
2019-05-17T23:31:08.522Z,13.36
2019-05-17T23:34:31.752Z,13.26
2019-05-17T23:37:55.098Z,13.24
2019-05-17T23:41:18.273Z,13.16
2019-05-17T23:44:41.353Z,13.09
2019-05-17T23:48:04.660Z,13.00
2019-05-17T23:51:27.904Z,12.98
2019-05-17T23:54:51.341Z,12.89
2019-05-17T23:58:14.400Z,12.85
